sensor_id;sensor_type;location;lat;lon;timestamp;P1;durP1;ratioP1;P2;durP2;ratioP2
64467;SDS011;50853;46.836;16.820;2023-05-29T05:35:33;12.85;;;6.10;;
64467;SDS011;50853;46.836;16.820;2023-05-29T05:38:00;8.82;;;5.10;;
64467;SDS011;50853;46.836;16.820;2023-05-29T05:40:26;16.13;;;5.88;;
64467;SDS011;50853;46.836;16.820;2023-05-29T05:42:52;21.75;;;6.35;;
64467;SDS011;50853;46.836;16.820;2023-05-29T05:45:18;18.63;;;5.85;;
64467;SDS011;50853;46.836;16.820;2023-05-29T05:47:44;17.00;;;6.15;;
64467;SDS011;50853;46.836;16.820;2023-05-29T05:50:10;14.00;;;5.75;;
64467;SDS011;50853;46.836;16.820;2023-05-29T05:52:36;19.70;;;5.50;;
64467;SDS011;50853;46.836;16.820;2023-05-29T05:55:02;16.33;;;6.00;;
64467;SDS011;50853;46.836;16.820;2023-05-29T05:57:28;13.37;;;5.33;;
64467;SDS011;50853;46.836;16.820;2023-05-29T05:59:57;13.70;;;5.20;;
64467;SDS011;50853;46.836;16.820;2023-05-29T06:02:23;16.27;;;4.78;;
64467;SDS011;50853;46.836;16.820;2023-05-29T06:04:49;8.60;;;4.32;;
64467;SDS011;50853;46.836;16.820;2023-05-29T06:07:16;16.20;;;4.82;;
64467;SDS011;50853;46.836;16.820;2023-05-29T06:09:41;15.15;;;4.70;;
64467;SDS011;50853;46.836;16.820;2023-05-29T06:12:07;11.90;;;4.53;;
64467;SDS011;50853;46.836;16.820;2023-05-29T06:14:34;8.70;;;4.53;;
64467;SDS011;50853;46.836;16.820;2023-05-29T06:17:00;12.35;;;4.40;;
64467;SDS011;50853;46.836;16.820;2023-05-29T06:19:26;17.43;;;4.80;;
64467;SDS011;50853;46.836;16.820;2023-05-29T06:21:52;8.73;;;4.57;;
64467;SDS011;50853;46.836;16.820;2023-05-29T06:24:18;6.37;;;4.10;;
64467;SDS011;50853;46.836;16.820;2023-05-29T06:26:44;19.55;;;3.72;;
64467;SDS011;50853;46.836;16.820;2023-05-29T06:29:10;10.97;;;4.30;;
64467;SDS011;50853;46.836;16.820;2023-05-29T06:31:35;13.57;;;4.23;;
64467;SDS011;50853;46.836;16.820;2023-05-29T06:34:01;8.43;;;4.00;;
64467;SDS011;50853;46.836;16.820;2023-05-29T06:36:27;10.60;;;4.33;;
64467;SDS011;50853;46.836;16.820;2023-05-29T12:24:41;8.35;;;4.05;;
64467;SDS011;50853;46.836;16.820;2023-05-29T12:27:07;9.88;;;4.35;;
64467;SDS011;50853;46.836;16.820;2023-05-29T12:29:33;10.68;;;4.82;;
64467;SDS011;50853;46.836;16.820;2023-05-29T12:31:59;8.20;;;4.25;;
64467;SDS011;50853;46.836;16.820;2023-05-29T12:34:25;9.95;;;3.85;;
64467;SDS011;50853;46.836;16.820;2023-05-29T12:36:51;7.90;;;4.22;;
64467;SDS011;50853;46.836;16.820;2023-05-29T12:39:17;12.95;;;4.45;;
64467;SDS011;50853;46.836;16.820;2023-05-29T12:41:43;7.80;;;4.07;;
64467;SDS011;50853;46.836;16.820;2023-05-29T12:44:08;9.55;;;4.63;;
64467;SDS011;50853;46.836;16.820;2023-05-29T12:46:38;12.10;;;4.55;;
64467;SDS011;50853;46.836;16.820;2023-05-29T12:49:15;11.75;;;4.35;;
64467;SDS011;50853;46.836;16.820;2023-05-29T12:51:46;6.35;;;3.80;;
64467;SDS011;50853;46.836;16.820;2023-05-29T12:54:12;7.60;;;4.43;;
64467;SDS011;50853;46.836;16.820;2023-05-29T12:56:40;6.32;;;3.97;;
64467;SDS011;50853;46.836;16.820;2023-05-29T12:59:06;12.52;;;4.50;;
64467;SDS011;50853;46.836;16.820;2023-05-29T13:01:36;10.43;;;4.75;;
64467;SDS011;50853;46.836;16.820;2023-05-29T13:04:04;8.05;;;4.18;;
64467;SDS011;50853;46.836;16.820;2023-05-29T13:06:34;9.07;;;4.40;;
64467;SDS011;50853;46.836;16.820;2023-05-29T13:09:00;11.05;;;4.50;;
64467;SDS011;50853;46.836;16.820;2023-05-29T13:11:26;9.70;;;4.47;;
64467;SDS011;50853;46.836;16.820;2023-05-29T13:13:52;6.65;;;4.28;;
64467;SDS011;50853;46.836;16.820;2023-05-29T13:16:18;10.97;;;4.80;;
64467;SDS011;50853;46.836;16.820;2023-05-29T13:18:43;7.43;;;4.20;;
64467;SDS011;50853;46.836;16.820;2023-05-29T13:21:09;8.40;;;4.60;;
64467;SDS011;50853;46.836;16.820;2023-05-29T13:23:36;14.18;;;4.38;;
64467;SDS011;50853;46.836;16.820;2023-05-29T13:26:03;12.93;;;4.87;;
64467;SDS011;50853;46.836;16.820;2023-05-29T13:28:30;10.32;;;4.05;;
64467;SDS011;50853;46.836;16.820;2023-05-29T14:42:38;10.18;;;4.70;;
64467;SDS011;50853;46.836;16.820;2023-05-29T14:45:04;9.07;;;5.10;;
64467;SDS011;50853;46.836;16.820;2023-05-29T14:47:30;8.70;;;5.15;;
64467;SDS011;50853;46.836;16.820;2023-05-29T14:49:56;10.50;;;5.53;;
64467;SDS011;50853;46.836;16.820;2023-05-29T14:52:21;19.65;;;5.82;;
64467;SDS011;50853;46.836;16.820;2023-05-29T14:54:47;9.43;;;5.57;;
64467;SDS011;50853;46.836;16.820;2023-05-29T14:57:13;9.05;;;5.60;;
64467;SDS011;50853;46.836;16.820;2023-05-29T14:59:39;7.77;;;4.57;;
64467;SDS011;50853;46.836;16.820;2023-05-29T15:02:04;8.30;;;5.47;;
64467;SDS011;50853;46.836;16.820;2023-05-29T15:04:30;9.93;;;5.90;;
64467;SDS011;50853;46.836;16.820;2023-05-29T15:06:56;10.02;;;6.15;;
64467;SDS011;50853;46.836;16.820;2023-05-29T15:09:22;12.30;;;5.40;;
